createdAt,value
2022-08-11T00:01:05.236Z,62.84
2022-08-11T00:03:43.123Z,62.90
2022-08-11T00:06:14.043Z,62.79
2022-08-11T00:08:42.430Z,62.77
2022-08-11T00:11:11.840Z,62.74
2022-08-11T00:13:41.839Z,63.14
2022-08-11T00:16:20.090Z,63.18
2022-08-11T00:18:51.448Z,63.20
2022-08-11T00:21:20.882Z,63.04
2022-08-11T00:24:08.491Z,63.28
2022-08-11T00:26:36.440Z,63.13
2022-08-11T00:29:11.042Z,63.17
2022-08-11T00:31:38.875Z,62.89
2022-08-11T00:34:11.215Z,62.79
2022-08-11T00:36:57.656Z,62.66
2022-08-11T00:39:28.522Z,63.08
2022-08-11T00:42:22.675Z,62.84
2022-08-11T00:45:21.977Z,63.18
2022-08-11T00:48:03.960Z,63.39
2022-08-11T00:50:55.078Z,63.59
2022-08-11T00:53:36.518Z,63.30
2022-08-11T00:56:40.556Z,63.19
2022-08-11T00:59:35.555Z,63.02
2022-08-11T01:02:17.126Z,63.11
2022-08-11T01:05:22.104Z,63.23
2022-08-11T01:08:15.153Z,63.40
2022-08-11T01:10:56.703Z,63.44
2022-08-11T01:13:58.554Z,63.33
2022-08-11T01:16:47.808Z,63.59
2022-08-11T01:20:47.373Z,63.35
2022-08-11T01:23:27.412Z,63.15
2022-08-11T01:26:02.218Z,63.24
2022-08-11T01:29:00.214Z,63.27
2022-08-11T01:32:11.769Z,63.34
2022-08-11T01:35:48.378Z,63.09
2022-08-11T01:38:45.438Z,63.26
2022-08-11T01:41:58.691Z,63.15
2022-08-11T01:44:52.351Z,63.07
2022-08-11T01:47:52.370Z,63.08
2022-08-11T01:50:59.406Z,63.28
2022-08-11T01:53:47.703Z,63.33
2022-08-11T01:56:43.644Z,63.33
2022-08-11T01:59:26.281Z,63.59
2022-08-11T02:02:20.563Z,63.69
2022-08-11T02:05:01.690Z,63.74
2022-08-11T02:08:12.538Z,63.99
2022-08-11T02:11:13.317Z,63.96
2022-08-11T02:13:59.134Z,64.01
2022-08-11T02:16:31.646Z,64.19
2022-08-11T02:19:37.323Z,63.63
2022-08-11T02:22:32.096Z,63.40
2022-08-11T02:25:04.305Z,63.51
2022-08-11T02:27:53.104Z,63.39
2022-08-11T02:30:25.349Z,63.14
2022-08-11T02:33:27.629Z,62.81
2022-08-11T02:36:00.191Z,63.00
2022-08-11T02:38:35.669Z,62.90
2022-08-11T02:41:58.579Z,62.90
2022-08-11T02:44:38.867Z,62.76
2022-08-11T02:47:39.393Z,62.49
2022-08-11T02:50:20.323Z,62.03
2022-08-11T02:53:09.225Z,62.35
2022-08-11T02:55:57.416Z,62.30
2022-08-11T02:59:13.885Z,62.59
2022-08-11T03:02:04.841Z,62.35
2022-08-11T03:04:51.293Z,62.23
2022-08-11T03:07:28.811Z,62.20
2022-08-11T03:10:09.857Z,62.18
2022-08-11T03:13:12.573Z,62.31
2022-08-11T03:16:15.437Z,62.20
2022-08-11T03:18:56.205Z,62.09
2022-08-11T03:22:01.965Z,62.21
2022-08-11T03:24:24.593Z,62.13
2022-08-11T03:27:10.890Z,61.41
2022-08-11T03:29:48.953Z,61.51
2022-08-11T03:33:18.453Z,61.41
2022-08-11T03:36:15.730Z,61.50
2022-08-11T03:39:09.438Z,61.27
2022-08-11T03:42:02.805Z,61.38
2022-08-11T03:44:56.451Z,61.23
2022-08-11T03:47:39.977Z,61.26
2022-08-11T03:50:24.627Z,61.47
2022-08-11T03:53:14.487Z,61.55
2022-08-11T03:56:02.732Z,61.46
2022-08-11T03:58:57.546Z,61.45
2022-08-11T04:02:05.195Z,61.58
2022-08-11T04:04:58.869Z,61.69
2022-08-11T04:07:55.537Z,61.95
2022-08-11T04:10:47.381Z,62.20
2022-08-11T04:13:35.579Z,62.09
2022-08-11T04:16:21.225Z,62.12
2022-08-11T04:18:47.548Z,61.95
2022-08-11T04:21:35.667Z,61.83
2022-08-11T04:24:39.585Z,61.59
2022-08-11T04:27:42.876Z,61.62
2022-08-11T04:30:12.057Z,61.75
2022-08-11T04:32:53.717Z,61.82
2022-08-11T04:35:46.039Z,61.95
2022-08-11T04:38:44.893Z,62.22
2022-08-11T04:41:20.676Z,62.46
2022-08-11T04:44:18.921Z,62.97
2022-08-11T04:47:07.552Z,63.30
2022-08-11T04:50:16.742Z,63.49
2022-08-11T04:53:33.631Z,63.69
2022-08-11T04:56:36.390Z,64.07
2022-08-11T04:59:37.201Z,64.14
2022-08-11T05:02:40.517Z,64.51
2022-08-11T05:05:56.751Z,64.78
2022-08-11T05:09:07.793Z,64.96
2022-08-11T05:11:57.977Z,65.10
2022-08-11T05:15:31.146Z,65.18
2022-08-11T05:18:37.697Z,65.14
2022-08-11T05:21:29.187Z,65.17
2022-08-11T05:24:26.211Z,65.10
2022-08-11T05:27:13.909Z,65.33
2022-08-11T05:30:04.464Z,65.43
2022-08-11T05:33:01.467Z,65.42
2022-08-11T05:36:00.491Z,65.25
2022-08-11T05:38:51.707Z,65.48
2022-08-11T05:41:41.534Z,65.32
2022-08-11T05:44:28.954Z,65.52
2022-08-11T05:47:15.180Z,65.27
2022-08-11T05:50:00.871Z,65.19
2022-08-11T05:52:49.154Z,65.18
2022-08-11T05:56:02.430Z,65.16
2022-08-11T05:58:42.713Z,65.18
2022-08-11T06:01:11.813Z,64.85
2022-08-11T06:03:57.965Z,64.55
2022-08-11T06:06:27.942Z,64.39
2022-08-11T06:08:58.961Z,64.10
2022-08-11T06:11:43.903Z,63.68
2022-08-11T06:14:12.283Z,63.72
2022-08-11T06:16:47.627Z,62.92
2022-08-11T06:19:15.000Z,62.21
2022-08-11T06:21:46.570Z,62.23
2022-08-11T06:24:15.023Z,61.74
2022-08-11T06:27:10.768Z,61.66
2022-08-11T06:29:46.893Z,61.71
2022-08-11T06:32:15.818Z,61.78
2022-08-11T06:35:03.981Z,62.21
2022-08-11T06:37:46.990Z,62.25
2022-08-11T06:40:31.111Z,62.36
2022-08-11T06:43:10.490Z,62.32
2022-08-11T06:45:46.010Z,62.15
2022-08-11T06:48:18.469Z,61.11
2022-08-11T06:51:11.478Z,60.89
2022-08-11T06:54:03.791Z,61.11
2022-08-11T06:57:26.400Z,61.47
2022-08-11T07:00:03.356Z,61.66
2022-08-11T07:03:08.519Z,61.66
2022-08-11T07:05:37.566Z,62.08
2022-08-11T07:08:41.510Z,61.91
2022-08-11T07:11:57.568Z,61.99
2022-08-11T07:14:45.226Z,61.86
2022-08-11T07:17:17.257Z,61.71
2022-08-11T07:20:09.869Z,61.67
2022-08-11T07:22:56.234Z,61.46
2022-08-11T07:25:43.436Z,61.01
2022-08-11T07:28:36.336Z,60.76
2022-08-11T07:31:09.514Z,60.26
2022-08-11T07:34:06.917Z,60.49
2022-08-11T07:36:32.255Z,59.79
2022-08-11T07:38:59.677Z,60.16
2022-08-11T07:41:31.041Z,59.78
2022-08-11T07:44:09.034Z,59.75
2022-08-11T07:47:02.950Z,59.72
2022-08-11T07:49:51.895Z,59.35
2022-08-11T07:52:37.095Z,59.14
2022-08-11T07:55:16.895Z,58.44
2022-08-11T07:58:19.950Z,58.28
2022-08-11T08:01:10.683Z,58.22
2022-08-11T08:04:08.869Z,58.24
2022-08-11T08:06:55.348Z,57.71
2022-08-11T08:09:41.715Z,57.27
2022-08-11T08:12:28.570Z,56.98
2022-08-11T08:15:16.117Z,57.03
2022-08-11T08:18:09.505Z,56.97
2022-08-11T08:20:46.208Z,56.49
2022-08-11T08:23:13.352Z,56.60
2022-08-11T08:25:42.183Z,55.81
2022-08-11T08:28:16.309Z,55.83
2022-08-11T08:30:52.545Z,56.30
2022-08-11T08:33:30.168Z,55.25
2022-08-11T08:36:12.257Z,55.58
2022-08-11T08:38:46.983Z,55.53
2022-08-11T08:41:19.437Z,55.26
2022-08-11T08:43:51.316Z,55.41
2022-08-11T08:46:25.626Z,55.12
2022-08-11T08:48:53.590Z,55.12
2022-08-11T08:52:01.091Z,55.04
2022-08-11T08:54:33.926Z,55.20
2022-08-11T08:57:04.870Z,54.73
2022-08-11T08:59:47.565Z,54.56
2022-08-11T09:02:17.398Z,54.23
2022-08-11T09:04:46.735Z,54.00
2022-08-11T09:07:16.518Z,53.43
2022-08-11T09:09:45.245Z,53.08
2022-08-11T09:12:13.024Z,52.71
2022-08-11T09:15:00.641Z,53.03
2022-08-11T09:17:28.915Z,52.34
2022-08-11T09:20:00.315Z,52.21
2022-08-11T09:23:06.472Z,52.16
2022-08-11T09:25:55.413Z,51.52
2022-08-11T09:28:23.540Z,51.52
2022-08-11T09:30:53.483Z,51.27
2022-08-11T09:33:21.445Z,51.23
2022-08-11T09:35:51.181Z,51.12
2022-08-11T09:38:38.229Z,50.75
2022-08-11T09:41:08.922Z,49.76
2022-08-11T09:44:04.297Z,50.49
2022-08-11T09:46:32.756Z,50.28
2022-08-11T09:49:01.030Z,49.62
2022-08-11T09:51:32.448Z,49.23
2022-08-11T09:54:07.346Z,49.61
2022-08-11T09:56:53.321Z,49.90
2022-08-11T09:59:22.127Z,50.53
2022-08-11T10:01:57.261Z,49.66
2022-08-11T10:04:42.374Z,49.05
2022-08-11T10:07:10.781Z,49.35
2022-08-11T10:09:50.562Z,49.47
2022-08-11T10:12:32.231Z,49.23
2022-08-11T10:15:27.933Z,48.94
2022-08-11T10:18:16.630Z,49.76
2022-08-11T10:20:50.137Z,50.32
2022-08-11T10:23:36.265Z,49.98
2022-08-11T10:26:44.523Z,49.07
2022-08-11T10:29:35.246Z,49.35
2022-08-11T10:32:27.068Z,49.70
2022-08-11T10:35:00.627Z,49.67
2022-08-11T10:38:07.517Z,49.71
2022-08-11T10:40:23.493Z,49.49
2022-08-11T10:43:03.603Z,49.56
2022-08-11T10:45:56.660Z,49.03
2022-08-11T10:48:25.885Z,48.24
2022-08-11T10:51:11.984Z,47.43
2022-08-11T10:54:00.729Z,48.21
2022-08-11T10:56:48.982Z,48.08
2022-08-11T10:59:16.728Z,49.08
2022-08-11T11:01:45.310Z,48.93
2022-08-11T11:04:17.258Z,49.45
2022-08-11T11:06:46.347Z,48.88
2022-08-11T11:09:39.602Z,48.17
2022-08-11T11:12:39.741Z,48.20
2022-08-11T11:15:25.830Z,47.54
2022-08-11T11:17:56.257Z,47.79
2022-08-11T11:20:47.480Z,47.93
2022-08-11T11:23:26.835Z,46.87
2022-08-11T11:26:29.559Z,46.17
2022-08-11T11:29:07.622Z,45.64
2022-08-11T11:31:43.078Z,44.92
2022-08-11T11:34:20.789Z,44.56
2022-08-11T11:36:58.358Z,44.68
2022-08-11T11:39:27.744Z,45.38
2022-08-11T11:41:56.619Z,43.75
2022-08-11T11:44:24.220Z,43.59
2022-08-11T11:46:52.201Z,43.90
2022-08-11T11:51:55.564Z,42.26
2022-08-11T11:54:25.121Z,42.79
2022-08-11T11:56:53.187Z,42.57
2022-08-11T11:59:41.064Z,40.83
2022-08-11T12:02:14.820Z,41.14
2022-08-11T12:04:44.226Z,42.01
2022-08-11T12:07:30.354Z,41.49
2022-08-11T12:09:58.434Z,40.18
2022-08-11T12:12:44.712Z,39.95
2022-08-11T12:15:12.484Z,40.02
2022-08-11T12:17:39.518Z,40.18
2022-08-11T12:20:31.752Z,38.89
2022-08-11T12:23:15.092Z,38.81
2022-08-11T12:26:25.236Z,38.43
2022-08-11T12:28:49.542Z,37.62
2022-08-11T12:31:16.294Z,37.14
2022-08-11T12:33:43.801Z,37.56
2022-08-11T12:36:15.686Z,37.59
2022-08-11T12:38:46.798Z,37.83
2022-08-11T12:41:38.922Z,38.86
2022-08-11T12:44:41.519Z,39.29
2022-08-11T12:47:09.056Z,38.93
2022-08-11T12:50:00.299Z,38.79
2022-08-11T12:52:33.942Z,39.18
2022-08-11T12:55:13.811Z,39.82
2022-08-11T12:58:04.252Z,38.69
2022-08-11T13:00:50.513Z,37.07
2022-08-11T13:03:39.096Z,37.61
2022-08-11T13:06:07.253Z,37.32
2022-08-11T13:08:36.837Z,36.18
2022-08-11T13:11:22.704Z,36.37
2022-08-11T13:13:57.194Z,37.14
2022-08-11T13:16:57.134Z,36.66
2022-08-11T13:19:24.516Z,35.37
2022-08-11T13:21:53.246Z,35.27
2022-08-11T13:24:21.621Z,34.73
2022-08-11T13:26:50.647Z,35.27
2022-08-11T13:29:28.574Z,35.43
2022-08-11T13:32:00.625Z,35.46
2022-08-11T13:34:30.892Z,35.15
2022-08-11T13:37:00.954Z,34.63
2022-08-11T13:39:31.023Z,35.00
2022-08-11T13:42:00.138Z,34.02
2022-08-11T13:44:29.806Z,33.56
2022-08-11T13:47:01.041Z,33.99
2022-08-11T13:49:28.647Z,34.41
2022-08-11T13:51:57.152Z,34.34
2022-08-11T13:54:31.038Z,34.69
2022-08-11T13:57:02.598Z,33.88
2022-08-11T13:59:31.119Z,33.71
2022-08-11T14:02:22.365Z,33.53
2022-08-11T14:04:58.927Z,32.52
2022-08-11T14:07:35.214Z,32.38
2022-08-11T14:10:03.985Z,32.87
2022-08-11T14:12:52.590Z,32.47
2022-08-11T14:15:49.869Z,32.75
2022-08-11T14:18:22.770Z,32.00
2022-08-11T14:21:12.694Z,32.51
2022-08-11T14:23:41.612Z,33.35
2022-08-11T14:26:28.801Z,33.27
2022-08-11T14:29:08.901Z,32.71
2022-08-11T14:31:43.512Z,33.30
2022-08-11T14:34:13.028Z,33.51
2022-08-11T14:36:41.942Z,32.26
2022-08-11T14:39:13.177Z,32.13
2022-08-11T14:42:11.637Z,32.33
2022-08-11T14:45:04.882Z,32.82
2022-08-11T14:47:35.737Z,32.93
2022-08-11T14:50:11.364Z,33.49
2022-08-11T14:52:45.722Z,34.12
2022-08-11T14:55:31.997Z,34.34
2022-08-11T14:58:00.178Z,33.27
2022-08-11T15:00:26.935Z,33.24
2022-08-11T15:03:10.134Z,33.22
2022-08-11T15:05:52.426Z,33.62
2022-08-11T15:08:45.847Z,33.83
2022-08-11T15:11:33.981Z,34.09
2022-08-11T15:14:02.995Z,34.38
2022-08-11T15:16:48.075Z,34.82
2022-08-11T15:19:16.135Z,34.76
2022-08-11T15:22:01.194Z,35.19
2022-08-11T15:24:27.935Z,34.52
2022-08-11T15:27:19.547Z,34.35
2022-08-11T15:30:06.417Z,34.52
2022-08-11T15:32:53.400Z,34.45
2022-08-11T15:35:39.613Z,34.47
2022-08-11T15:38:11.538Z,34.80
2022-08-11T15:40:59.295Z,35.21
2022-08-11T15:43:53.270Z,35.69
2022-08-11T15:46:27.290Z,35.19
2022-08-11T15:49:00.909Z,35.93
2022-08-11T15:51:35.873Z,35.96
2022-08-11T15:54:09.358Z,36.31
2022-08-11T15:56:41.469Z,35.95
2022-08-11T15:59:41.883Z,36.15
2022-08-11T16:02:28.118Z,36.03
2022-08-11T16:04:56.661Z,35.37
2022-08-11T16:07:29.493Z,35.68
2022-08-11T16:10:09.541Z,35.87
2022-08-11T16:12:40.535Z,35.60
2022-08-11T16:15:28.735Z,35.56
2022-08-11T16:18:01.002Z,35.77
2022-08-11T16:20:30.685Z,35.75
2022-08-11T16:23:02.910Z,35.95
2022-08-11T16:27:03.507Z,35.98
2022-08-11T16:28:23.038Z,35.59
2022-08-11T16:30:51.145Z,35.54
2022-08-11T16:33:22.632Z,35.56
2022-08-11T16:36:25.547Z,35.49
2022-08-11T16:38:54.792Z,35.71
2022-08-11T16:41:42.397Z,35.62
2022-08-11T16:44:36.982Z,35.47
2022-08-11T16:47:08.410Z,35.65
2022-08-11T16:49:38.381Z,35.77
2022-08-11T16:52:10.931Z,36.39
2022-08-11T16:54:40.524Z,36.41
2022-08-11T16:57:33.751Z,36.76
2022-08-11T17:00:06.111Z,36.78
2022-08-11T17:03:04.870Z,37.24
2022-08-11T17:05:55.014Z,37.41
2022-08-11T17:08:57.112Z,37.24
2022-08-11T17:11:46.898Z,37.33
2022-08-11T17:14:35.427Z,38.01
2022-08-11T17:17:05.997Z,38.68
2022-08-11T17:20:40.775Z,38.81
2022-08-11T17:22:40.952Z,39.50
2022-08-11T17:25:09.440Z,39.98
2022-08-11T17:27:38.948Z,40.11
2022-08-11T17:30:07.561Z,40.35
2022-08-11T17:33:01.047Z,40.11
2022-08-11T17:35:39.205Z,40.47
2022-08-11T17:38:15.719Z,40.49
2022-08-11T17:41:05.417Z,41.00
2022-08-11T17:43:51.625Z,41.48
2022-08-11T17:46:38.004Z,42.03
2022-08-11T17:49:07.769Z,42.67
2022-08-11T17:51:54.333Z,43.01
2022-08-11T17:54:41.859Z,43.16
2022-08-11T17:57:28.638Z,43.30
2022-08-11T17:59:57.682Z,44.02
2022-08-11T18:02:50.033Z,44.14
2022-08-11T18:05:20.001Z,44.52
2022-08-11T18:08:06.857Z,44.70
2022-08-11T18:10:54.225Z,44.95
2022-08-11T18:13:41.235Z,45.31
2022-08-11T18:16:27.048Z,45.70
2022-08-11T18:19:12.572Z,45.70
2022-08-11T18:22:02.721Z,45.88
2022-08-11T18:25:05.346Z,46.21
2022-08-11T18:27:53.129Z,46.13
2022-08-11T18:30:38.568Z,46.47
2022-08-11T18:36:39.691Z,47.85
2022-08-11T18:39:29.137Z,48.18
2022-08-11T18:42:28.941Z,48.14
2022-08-11T18:45:18.298Z,48.77
2022-08-11T18:48:07.168Z,49.17
2022-08-11T18:51:30.093Z,49.23
2022-08-11T18:54:05.863Z,49.58
2022-08-11T18:56:51.354Z,49.67
2022-08-11T18:59:42.202Z,49.94
2022-08-11T19:02:29.073Z,50.00
2022-08-11T19:05:16.878Z,50.63
2022-08-11T19:08:07.307Z,51.11
2022-08-11T19:10:52.584Z,51.20
2022-08-11T19:13:43.453Z,51.13
2022-08-11T19:16:30.698Z,51.33
2022-08-11T19:19:17.628Z,51.79
2022-08-11T19:22:03.479Z,51.94
2022-08-11T19:24:50.234Z,51.86
2022-08-11T19:27:37.278Z,51.93
2022-08-11T19:30:22.467Z,52.10
2022-08-11T19:33:08.671Z,52.04
2022-08-11T19:35:55.137Z,52.22
2022-08-11T19:38:40.933Z,51.95
2022-08-11T19:41:52.070Z,51.68
2022-08-11T19:44:34.208Z,52.19
2022-08-11T19:47:20.668Z,52.14
2022-08-11T19:50:07.559Z,52.33
2022-08-11T19:52:55.019Z,51.98
2022-08-11T19:55:40.901Z,52.34
2022-08-11T19:58:26.241Z,52.04
2022-08-11T20:01:11.208Z,52.13
2022-08-11T20:03:56.335Z,51.26
2022-08-11T20:06:42.619Z,51.52
2022-08-11T20:10:06.059Z,51.06
2022-08-11T20:12:36.939Z,51.08
2022-08-11T20:15:23.658Z,51.07
2022-08-11T20:18:09.465Z,51.12
2022-08-11T20:20:55.436Z,50.88
2022-08-11T20:23:42.699Z,50.89
2022-08-11T20:26:31.332Z,50.77
2022-08-11T20:29:18.904Z,50.66
2022-08-11T20:32:06.610Z,51.22
2022-08-11T20:34:56.734Z,51.32
2022-08-11T20:37:48.821Z,51.76
2022-08-11T20:40:39.391Z,52.42
2022-08-11T20:44:08.473Z,52.67
2022-08-11T20:46:37.759Z,53.30
2022-08-11T20:49:24.677Z,53.84
2022-08-11T20:52:09.968Z,54.34
2022-08-11T20:54:56.649Z,54.76
2022-08-11T20:58:00.072Z,55.57
2022-08-11T21:00:52.635Z,55.89
2022-08-11T21:03:44.817Z,56.17
2022-08-11T21:06:33.141Z,56.27
2022-08-11T21:09:25.020Z,56.47
2022-08-11T21:12:30.835Z,56.98
2022-08-11T21:15:38.692Z,57.49
2022-08-11T21:18:28.465Z,57.35
2022-08-11T21:21:17.962Z,57.46
2022-08-11T21:24:05.205Z,57.81
2022-08-11T21:26:51.715Z,58.18
2022-08-11T21:29:38.562Z,58.13
2022-08-11T21:32:24.393Z,58.33
2022-08-11T21:35:10.765Z,58.79
2022-08-11T21:37:56.595Z,58.99
2022-08-11T21:40:44.009Z,59.32
2022-08-11T21:43:30.194Z,59.53
2022-08-11T21:46:16.484Z,59.62
2022-08-11T21:49:03.236Z,59.91
2022-08-11T21:51:48.603Z,59.97
2022-08-11T21:54:34.925Z,60.14
2022-08-11T21:57:21.923Z,60.07
2022-08-11T22:00:15.474Z,60.49
2022-08-11T22:03:04.755Z,60.06
2022-08-11T22:05:52.069Z,59.82
2022-08-11T22:08:37.954Z,59.33
2022-08-11T22:11:32.429Z,59.23
2022-08-11T22:14:21.237Z,58.61
2022-08-11T22:17:06.467Z,57.83
2022-08-11T22:19:53.326Z,56.37
2022-08-11T22:22:51.864Z,55.73
2022-08-11T22:25:51.257Z,55.29
2022-08-11T22:28:39.333Z,54.98
2022-08-11T22:31:26.802Z,54.61
2022-08-11T22:34:11.991Z,53.92
2022-08-11T22:36:59.357Z,53.94
2022-08-11T22:40:02.645Z,53.55
2022-08-11T22:42:50.003Z,52.91
2022-08-11T22:45:35.419Z,52.86
2022-08-11T22:48:24.419Z,52.63
2022-08-11T22:51:10.754Z,53.17
2022-08-11T22:53:58.956Z,53.11
2022-08-11T22:56:46.569Z,53.50
2022-08-11T22:59:33.137Z,53.39
2022-08-11T23:02:19.913Z,53.38
2022-08-11T23:05:07.710Z,53.52
2022-08-11T23:07:54.173Z,53.65
2022-08-11T23:10:40.947Z,53.39
2022-08-11T23:13:27.345Z,53.20
2022-08-11T23:16:17.240Z,53.18
2022-08-11T23:19:04.018Z,53.18
2022-08-11T23:21:50.182Z,52.99
2022-08-11T23:24:36.140Z,52.98
2022-08-11T23:27:23.099Z,52.79
2022-08-11T23:30:09.429Z,52.99
2022-08-11T23:32:55.856Z,52.81
2022-08-11T23:35:54.021Z,53.14
2022-08-11T23:38:43.282Z,53.28
2022-08-11T23:41:31.973Z,53.54
2022-08-11T23:44:18.259Z,53.80
2022-08-11T23:47:04.982Z,53.87
2022-08-11T23:49:51.631Z,54.07
2022-08-11T23:52:37.478Z,54.22
2022-08-11T23:55:22.752Z,54.31
2022-08-11T23:58:08.682Z,54.24
